sensor_id;sensor_type;location;lat;lon;timestamp;P1;durP1;ratioP1;P2;durP2;ratioP2
61915;SDS011;47868;51.326;6.550;2023-05-16T00:00:05;3.58;;;2.63;;
61915;SDS011;47868;51.326;6.550;2023-05-16T00:02:33;3.38;;;2.22;;
61915;SDS011;47868;51.326;6.550;2023-05-16T00:05:00;4.20;;;2.40;;
61915;SDS011;47868;51.326;6.550;2023-05-16T00:07:28;4.00;;;2.30;;
61915;SDS011;47868;51.326;6.550;2023-05-16T00:09:54;5.00;;;2.40;;
61915;SDS011;47868;51.326;6.550;2023-05-16T00:12:20;10.00;;;2.95;;
61915;SDS011;47868;51.326;6.550;2023-05-16T00:14:47;4.05;;;2.50;;
61915;SDS011;47868;51.326;6.550;2023-05-16T00:17:14;7.32;;;2.72;;
61915;SDS011;47868;51.326;6.550;2023-05-16T00:19:41;11.10;;;3.15;;
61915;SDS011;47868;51.326;6.550;2023-05-16T00:22:08;6.97;;;2.70;;
61915;SDS011;47868;51.326;6.550;2023-05-16T00:24:35;7.80;;;3.00;;
61915;SDS011;47868;51.326;6.550;2023-05-16T00:27:01;6.85;;;2.60;;
61915;SDS011;47868;51.326;6.550;2023-05-16T00:29:28;3.83;;;2.28;;
61915;SDS011;47868;51.326;6.550;2023-05-16T00:31:54;6.55;;;2.67;;
61915;SDS011;47868;51.326;6.550;2023-05-16T00:34:20;9.15;;;2.85;;
61915;SDS011;47868;51.326;6.550;2023-05-16T00:36:46;9.25;;;2.95;;
61915;SDS011;47868;51.326;6.550;2023-05-16T00:39:12;5.43;;;3.33;;
61915;SDS011;47868;51.326;6.550;2023-05-16T00:41:38;10.10;;;3.30;;
61915;SDS011;47868;51.326;6.550;2023-05-16T00:44:05;8.27;;;3.15;;
61915;SDS011;47868;51.326;6.550;2023-05-16T00:46:31;8.38;;;3.00;;
61915;SDS011;47868;51.326;6.550;2023-05-16T00:48:57;7.72;;;3.10;;
61915;SDS011;47868;51.326;6.550;2023-05-16T00:51:23;6.68;;;3.58;;
61915;SDS011;47868;51.326;6.550;2023-05-16T00:53:49;9.82;;;3.50;;
61915;SDS011;47868;51.326;6.550;2023-05-16T00:56:15;9.15;;;3.95;;
61915;SDS011;47868;51.326;6.550;2023-05-16T00:58:42;9.65;;;3.80;;
61915;SDS011;47868;51.326;6.550;2023-05-16T01:01:08;7.88;;;4.13;;
61915;SDS011;47868;51.326;6.550;2023-05-16T01:03:34;7.72;;;3.33;;
61915;SDS011;47868;51.326;6.550;2023-05-16T01:06:01;9.20;;;3.72;;
61915;SDS011;47868;51.326;6.550;2023-05-16T01:08:27;8.02;;;3.55;;
61915;SDS011;47868;51.326;6.550;2023-05-16T01:13:47;6.78;;;3.30;;
61915;SDS011;47868;51.326;6.550;2023-05-16T01:16:18;12.32;;;3.95;;
61915;SDS011;47868;51.326;6.550;2023-05-16T01:18:51;10.20;;;3.60;;
61915;SDS011;47868;51.326;6.550;2023-05-16T01:21:34;13.48;;;3.65;;
61915;SDS011;47868;51.326;6.550;2023-05-16T01:24:08;8.75;;;3.58;;
61915;SDS011;47868;51.326;6.550;2023-05-16T01:26:37;15.27;;;3.58;;
61915;SDS011;47868;51.326;6.550;2023-05-16T01:29:04;6.70;;;3.40;;
61915;SDS011;47868;51.326;6.550;2023-05-16T01:31:31;10.85;;;4.15;;
61915;SDS011;47868;51.326;6.550;2023-05-16T01:33:57;10.57;;;3.35;;
61915;SDS011;47868;51.326;6.550;2023-05-16T01:36:32;8.98;;;3.80;;
61915;SDS011;47868;51.326;6.550;2023-05-16T01:42:13;16.50;;;4.80;;
61915;SDS011;47868;51.326;6.550;2023-05-16T01:47:05;10.07;;;4.10;;
61915;SDS011;47868;51.326;6.550;2023-05-16T01:49:35;14.95;;;4.20;;
61915;SDS011;47868;51.326;6.550;2023-05-16T01:52:07;15.43;;;4.38;;
61915;SDS011;47868;51.326;6.550;2023-05-16T01:54:35;14.80;;;4.25;;
61915;SDS011;47868;51.326;6.550;2023-05-16T01:57:02;13.60;;;3.97;;
61915;SDS011;47868;51.326;6.550;2023-05-16T01:59:29;11.82;;;4.15;;
61915;SDS011;47868;51.326;6.550;2023-05-16T02:01:58;11.40;;;4.03;;
61915;SDS011;47868;51.326;6.550;2023-05-16T02:04:24;11.95;;;4.13;;
61915;SDS011;47868;51.326;6.550;2023-05-16T02:06:50;11.70;;;4.22;;
61915;SDS011;47868;51.326;6.550;2023-05-16T02:09:17;15.70;;;4.38;;
61915;SDS011;47868;51.326;6.550;2023-05-16T02:11:43;10.23;;;4.45;;
61915;SDS011;47868;51.326;6.550;2023-05-16T02:14:10;14.40;;;3.92;;
61915;SDS011;47868;51.326;6.550;2023-05-16T02:16:36;9.60;;;3.85;;
61915;SDS011;47868;51.326;6.550;2023-05-16T02:19:02;18.08;;;4.50;;
61915;SDS011;47868;51.326;6.550;2023-05-16T02:21:28;14.52;;;4.35;;
61915;SDS011;47868;51.326;6.550;2023-05-16T02:23:55;17.55;;;4.30;;
61915;SDS011;47868;51.326;6.550;2023-05-16T02:26:21;12.05;;;4.25;;
61915;SDS011;47868;51.326;6.550;2023-05-16T02:28:47;16.02;;;4.40;;
61915;SDS011;47868;51.326;6.550;2023-05-16T02:31:24;13.77;;;4.22;;
61915;SDS011;47868;51.326;6.550;2023-05-16T02:33:50;17.50;;;4.28;;
61915;SDS011;47868;51.326;6.550;2023-05-16T02:36:16;15.95;;;4.78;;
61915;SDS011;47868;51.326;6.550;2023-05-16T02:38:42;17.88;;;4.88;;
61915;SDS011;47868;51.326;6.550;2023-05-16T02:41:08;17.23;;;4.78;;
61915;SDS011;47868;51.326;6.550;2023-05-16T02:43:34;17.25;;;4.65;;
61915;SDS011;47868;51.326;6.550;2023-05-16T02:46:00;14.25;;;4.20;;
61915;SDS011;47868;51.326;6.550;2023-05-16T02:48:26;21.10;;;5.07;;
61915;SDS011;47868;51.326;6.550;2023-05-16T02:50:52;13.65;;;3.90;;
61915;SDS011;47868;51.326;6.550;2023-05-16T02:53:18;18.33;;;5.25;;
61915;SDS011;47868;51.326;6.550;2023-05-16T02:55:44;15.15;;;3.90;;
61915;SDS011;47868;51.326;6.550;2023-05-16T02:58:10;17.05;;;4.15;;
61915;SDS011;47868;51.326;6.550;2023-05-16T03:00:36;25.63;;;4.53;;
61915;SDS011;47868;51.326;6.550;2023-05-16T03:03:02;16.75;;;4.20;;
61915;SDS011;47868;51.326;6.550;2023-05-16T03:05:28;17.25;;;4.47;;
61915;SDS011;47868;51.326;6.550;2023-05-16T03:07:54;12.52;;;4.50;;
61915;SDS011;47868;51.326;6.550;2023-05-16T03:10:20;13.95;;;4.22;;
61915;SDS011;47868;51.326;6.550;2023-05-16T03:12:46;12.27;;;3.90;;
61915;SDS011;47868;51.326;6.550;2023-05-16T03:15:12;13.68;;;4.00;;
61915;SDS011;47868;51.326;6.550;2023-05-16T03:17:38;14.07;;;4.30;;
61915;SDS011;47868;51.326;6.550;2023-05-16T03:20:04;17.75;;;4.68;;
61915;SDS011;47868;51.326;6.550;2023-05-16T03:22:32;16.52;;;4.82;;
61915;SDS011;47868;51.326;6.550;2023-05-16T03:24:58;15.23;;;4.47;;
61915;SDS011;47868;51.326;6.550;2023-05-16T03:27:25;19.63;;;4.57;;
61915;SDS011;47868;51.326;6.550;2023-05-16T03:29:51;12.40;;;3.92;;
61915;SDS011;47868;51.326;6.550;2023-05-16T03:32:17;15.40;;;4.05;;
61915;SDS011;47868;51.326;6.550;2023-05-16T03:34:43;19.00;;;5.00;;
61915;SDS011;47868;51.326;6.550;2023-05-16T03:37:11;13.88;;;3.92;;
61915;SDS011;47868;51.326;6.550;2023-05-16T03:39:39;12.77;;;3.88;;
61915;SDS011;47868;51.326;6.550;2023-05-16T03:42:05;10.73;;;3.30;;
61915;SDS011;47868;51.326;6.550;2023-05-16T03:44:31;12.95;;;3.65;;
61915;SDS011;47868;51.326;6.550;2023-05-16T03:46:57;15.43;;;3.85;;
61915;SDS011;47868;51.326;6.550;2023-05-16T03:49:25;19.15;;;4.95;;
61915;SDS011;47868;51.326;6.550;2023-05-16T03:51:54;14.80;;;3.90;;
61915;SDS011;47868;51.326;6.550;2023-05-16T03:54:21;17.35;;;4.53;;
61915;SDS011;47868;51.326;6.550;2023-05-16T03:56:47;8.23;;;3.22;;
61915;SDS011;47868;51.326;6.550;2023-05-16T03:59:13;22.85;;;4.55;;
61915;SDS011;47868;51.326;6.550;2023-05-16T04:01:39;14.40;;;4.28;;
61915;SDS011;47868;51.326;6.550;2023-05-16T04:04:05;19.77;;;4.38;;
61915;SDS011;47868;51.326;6.550;2023-05-16T04:06:31;15.32;;;3.78;;
61915;SDS011;47868;51.326;6.550;2023-05-16T04:08:58;14.32;;;3.83;;
61915;SDS011;47868;51.326;6.550;2023-05-16T04:11:24;17.05;;;3.78;;
61915;SDS011;47868;51.326;6.550;2023-05-16T04:13:50;10.43;;;3.63;;
61915;SDS011;47868;51.326;6.550;2023-05-16T04:16:17;15.23;;;3.67;;
61915;SDS011;47868;51.326;6.550;2023-05-16T04:18:44;14.23;;;3.33;;
61915;SDS011;47868;51.326;6.550;2023-05-16T04:21:10;11.68;;;3.75;;
61915;SDS011;47868;51.326;6.550;2023-05-16T04:23:39;18.75;;;4.90;;
61915;SDS011;47868;51.326;6.550;2023-05-16T04:26:05;13.55;;;3.42;;
61915;SDS011;47868;51.326;6.550;2023-05-16T04:28:32;14.68;;;3.92;;
61915;SDS011;47868;51.326;6.550;2023-05-16T04:30:58;10.70;;;3.50;;
61915;SDS011;47868;51.326;6.550;2023-05-16T04:33:24;16.40;;;4.25;;
61915;SDS011;47868;51.326;6.550;2023-05-16T04:35:50;13.93;;;3.13;;
61915;SDS011;47868;51.326;6.550;2023-05-16T04:38:17;11.60;;;3.78;;
61915;SDS011;47868;51.326;6.550;2023-05-16T04:40:42;12.70;;;4.60;;
61915;SDS011;47868;51.326;6.550;2023-05-16T04:43:09;15.07;;;5.30;;
61915;SDS011;47868;51.326;6.550;2023-05-16T04:45:35;15.32;;;5.30;;
61915;SDS011;47868;51.326;6.550;2023-05-16T04:48:01;17.92;;;6.20;;
61915;SDS011;47868;51.326;6.550;2023-05-16T04:50:27;17.17;;;5.32;;
61915;SDS011;47868;51.326;6.550;2023-05-16T04:52:54;17.52;;;5.15;;
61915;SDS011;47868;51.326;6.550;2023-05-16T04:55:20;15.25;;;4.18;;
61915;SDS011;47868;51.326;6.550;2023-05-16T04:57:46;19.88;;;3.90;;
61915;SDS011;47868;51.326;6.550;2023-05-16T05:00:12;20.63;;;4.60;;
61915;SDS011;47868;51.326;6.550;2023-05-16T05:02:38;12.05;;;3.92;;
61915;SDS011;47868;51.326;6.550;2023-05-16T05:05:04;17.40;;;3.83;;
61915;SDS011;47868;51.326;6.550;2023-05-16T05:07:31;14.50;;;3.63;;
61915;SDS011;47868;51.326;6.550;2023-05-16T05:09:57;19.80;;;4.53;;
61915;SDS011;47868;51.326;6.550;2023-05-16T05:12:23;14.88;;;3.95;;
61915;SDS011;47868;51.326;6.550;2023-05-16T05:14:51;19.90;;;3.85;;
61915;SDS011;47868;51.326;6.550;2023-05-16T05:17:18;19.45;;;3.63;;
61915;SDS011;47868;51.326;6.550;2023-05-16T05:19:45;11.45;;;3.42;;
61915;SDS011;47868;51.326;6.550;2023-05-16T05:22:11;23.35;;;5.13;;
61915;SDS011;47868;51.326;6.550;2023-05-16T05:24:37;14.23;;;3.00;;
61915;SDS011;47868;51.326;6.550;2023-05-16T05:27:03;17.40;;;4.22;;
61915;SDS011;47868;51.326;6.550;2023-05-16T05:29:29;17.05;;;3.53;;
61915;SDS011;47868;51.326;6.550;2023-05-16T05:31:55;21.67;;;4.40;;
61915;SDS011;47868;51.326;6.550;2023-05-16T05:34:21;13.88;;;3.35;;
61915;SDS011;47868;51.326;6.550;2023-05-16T05:36:47;15.27;;;3.70;;
61915;SDS011;47868;51.326;6.550;2023-05-16T05:39:13;17.45;;;4.00;;
61915;SDS011;47868;51.326;6.550;2023-05-16T05:41:39;18.40;;;3.60;;
61915;SDS011;47868;51.326;6.550;2023-05-16T05:44:05;14.18;;;3.70;;
61915;SDS011;47868;51.326;6.550;2023-05-16T05:46:31;15.98;;;3.85;;
61915;SDS011;47868;51.326;6.550;2023-05-16T05:48:58;12.80;;;3.22;;
61915;SDS011;47868;51.326;6.550;2023-05-16T05:51:25;16.58;;;3.90;;
61915;SDS011;47868;51.326;6.550;2023-05-16T05:53:51;16.13;;;3.85;;
61915;SDS011;47868;51.326;6.550;2023-05-16T05:56:17;17.77;;;3.63;;
61915;SDS011;47868;51.326;6.550;2023-05-16T05:58:44;17.52;;;3.72;;
61915;SDS011;47868;51.326;6.550;2023-05-16T06:01:10;12.90;;;3.83;;
61915;SDS011;47868;51.326;6.550;2023-05-16T06:03:36;28.10;;;4.13;;
61915;SDS011;47868;51.326;6.550;2023-05-16T06:06:02;17.08;;;4.20;;
61915;SDS011;47868;51.326;6.550;2023-05-16T06:08:28;15.70;;;3.33;;
61915;SDS011;47868;51.326;6.550;2023-05-16T06:10:54;11.63;;;3.50;;
61915;SDS011;47868;51.326;6.550;2023-05-16T06:13:20;13.82;;;4.05;;
61915;SDS011;47868;51.326;6.550;2023-05-16T06:15:50;13.70;;;3.40;;
61915;SDS011;47868;51.326;6.550;2023-05-16T06:18:16;13.85;;;3.63;;
61915;SDS011;47868;51.326;6.550;2023-05-16T06:20:42;14.38;;;4.00;;
61915;SDS011;47868;51.326;6.550;2023-05-16T06:23:08;13.45;;;3.17;;
61915;SDS011;47868;51.326;6.550;2023-05-16T06:25:34;14.48;;;3.67;;
61915;SDS011;47868;51.326;6.550;2023-05-16T06:28:00;14.40;;;3.28;;
61915;SDS011;47868;51.326;6.550;2023-05-16T06:30:26;9.35;;;3.55;;
61915;SDS011;47868;51.326;6.550;2023-05-16T06:32:52;13.77;;;3.33;;
61915;SDS011;47868;51.326;6.550;2023-05-16T06:35:18;11.88;;;3.53;;
61915;SDS011;47868;51.326;6.550;2023-05-16T06:37:44;17.40;;;3.50;;
61915;SDS011;47868;51.326;6.550;2023-05-16T06:40:10;13.80;;;3.72;;
61915;SDS011;47868;51.326;6.550;2023-05-16T06:42:36;16.00;;;3.67;;
61915;SDS011;47868;51.326;6.550;2023-05-16T06:45:02;11.15;;;3.50;;
61915;SDS011;47868;51.326;6.550;2023-05-16T06:47:28;14.77;;;3.85;;
61915;SDS011;47868;51.326;6.550;2023-05-16T06:49:54;11.23;;;3.40;;
61915;SDS011;47868;51.326;6.550;2023-05-16T06:52:20;11.52;;;3.17;;
61915;SDS011;47868;51.326;6.550;2023-05-16T06:54:46;12.18;;;3.20;;
61915;SDS011;47868;51.326;6.550;2023-05-16T06:57:12;20.27;;;3.80;;
61915;SDS011;47868;51.326;6.550;2023-05-16T06:59:38;10.43;;;3.00;;
61915;SDS011;47868;51.326;6.550;2023-05-16T07:02:05;13.70;;;3.55;;
61915;SDS011;47868;51.326;6.550;2023-05-16T07:04:31;13.30;;;3.83;;
61915;SDS011;47868;51.326;6.550;2023-05-16T07:07:00;13.40;;;3.08;;
61915;SDS011;47868;51.326;6.550;2023-05-16T07:09:26;11.45;;;2.80;;
61915;SDS011;47868;51.326;6.550;2023-05-16T07:11:52;10.75;;;2.25;;
61915;SDS011;47868;51.326;6.550;2023-05-16T07:14:18;6.80;;;2.70;;
61915;SDS011;47868;51.326;6.550;2023-05-16T07:16:44;12.85;;;3.20;;
61915;SDS011;47868;51.326;6.550;2023-05-16T07:19:10;8.90;;;2.63;;
61915;SDS011;47868;51.326;6.550;2023-05-16T07:21:36;8.75;;;2.70;;
61915;SDS011;47868;51.326;6.550;2023-05-16T07:24:02;12.13;;;2.97;;
61915;SDS011;47868;51.326;6.550;2023-05-16T07:26:28;15.35;;;2.88;;
61915;SDS011;47868;51.326;6.550;2023-05-16T07:28:54;10.93;;;3.17;;
61915;SDS011;47868;51.326;6.550;2023-05-16T07:31:20;12.48;;;2.42;;
61915;SDS011;47868;51.326;6.550;2023-05-16T07:33:47;7.97;;;2.60;;
61915;SDS011;47868;51.326;6.550;2023-05-16T07:36:13;9.48;;;2.58;;
61915;SDS011;47868;51.326;6.550;2023-05-16T07:38:40;11.32;;;3.33;;
61915;SDS011;47868;51.326;6.550;2023-05-16T07:41:06;13.80;;;3.10;;
61915;SDS011;47868;51.326;6.550;2023-05-16T07:43:32;10.18;;;2.42;;
61915;SDS011;47868;51.326;6.550;2023-05-16T07:46:01;14.23;;;3.00;;
61915;SDS011;47868;51.326;6.550;2023-05-16T07:48:27;13.38;;;2.72;;
61915;SDS011;47868;51.326;6.550;2023-05-16T07:50:53;6.30;;;1.92;;
61915;SDS011;47868;51.326;6.550;2023-05-16T07:53:20;8.82;;;2.60;;
61915;SDS011;47868;51.326;6.550;2023-05-16T07:55:46;7.07;;;2.47;;
61915;SDS011;47868;51.326;6.550;2023-05-16T07:58:12;8.95;;;2.42;;
61915;SDS011;47868;51.326;6.550;2023-05-16T08:00:38;8.05;;;2.53;;
61915;SDS011;47868;51.326;6.550;2023-05-16T08:03:04;8.10;;;3.00;;
61915;SDS011;47868;51.326;6.550;2023-05-16T08:05:30;10.40;;;2.90;;
61915;SDS011;47868;51.326;6.550;2023-05-16T08:07:57;11.10;;;2.38;;
61915;SDS011;47868;51.326;6.550;2023-05-16T08:10:23;11.93;;;2.63;;
61915;SDS011;47868;51.326;6.550;2023-05-16T08:12:49;9.90;;;2.42;;
61915;SDS011;47868;51.326;6.550;2023-05-16T08:15:15;9.63;;;2.35;;
61915;SDS011;47868;51.326;6.550;2023-05-16T08:17:41;13.52;;;2.70;;
61915;SDS011;47868;51.326;6.550;2023-05-16T08:20:07;9.18;;;2.38;;
61915;SDS011;47868;51.326;6.550;2023-05-16T08:22:33;6.72;;;2.35;;
61915;SDS011;47868;51.326;6.550;2023-05-16T08:24:59;11.35;;;2.67;;
61915;SDS011;47868;51.326;6.550;2023-05-16T08:27:26;10.25;;;2.50;;
61915;SDS011;47868;51.326;6.550;2023-05-16T08:29:52;7.53;;;2.33;;
61915;SDS011;47868;51.326;6.550;2023-05-16T08:32:18;9.90;;;2.35;;
61915;SDS011;47868;51.326;6.550;2023-05-16T08:34:44;11.95;;;2.00;;
61915;SDS011;47868;51.326;6.550;2023-05-16T08:37:10;9.48;;;2.38;;
61915;SDS011;47868;51.326;6.550;2023-05-16T08:39:39;7.28;;;2.05;;
61915;SDS011;47868;51.326;6.550;2023-05-16T08:42:06;9.68;;;2.15;;
61915;SDS011;47868;51.326;6.550;2023-05-16T08:44:33;5.38;;;2.05;;
61915;SDS011;47868;51.326;6.550;2023-05-16T08:47:01;5.38;;;1.90;;
61915;SDS011;47868;51.326;6.550;2023-05-16T08:49:30;6.97;;;2.13;;
61915;SDS011;47868;51.326;6.550;2023-05-16T08:51:56;10.40;;;2.28;;
61915;SDS011;47868;51.326;6.550;2023-05-16T08:54:23;8.27;;;2.40;;
61915;SDS011;47868;51.326;6.550;2023-05-16T08:56:50;5.68;;;2.33;;
61915;SDS011;47868;51.326;6.550;2023-05-16T08:59:16;11.52;;;2.83;;
61915;SDS011;47868;51.326;6.550;2023-05-16T09:01:43;9.50;;;2.85;;
61915;SDS011;47868;51.326;6.550;2023-05-16T09:04:09;7.03;;;2.22;;
61915;SDS011;47868;51.326;6.550;2023-05-16T09:06:35;12.70;;;2.90;;
61915;SDS011;47868;51.326;6.550;2023-05-16T09:09:01;9.65;;;2.95;;
61915;SDS011;47868;51.326;6.550;2023-05-16T09:11:28;6.40;;;2.28;;
61915;SDS011;47868;51.326;6.550;2023-05-16T09:13:54;9.77;;;2.50;;
61915;SDS011;47868;51.326;6.550;2023-05-16T09:16:20;6.50;;;2.15;;
61915;SDS011;47868;51.326;6.550;2023-05-16T09:18:52;12.40;;;2.95;;
61915;SDS011;47868;51.326;6.550;2023-05-16T09:21:19;7.50;;;2.45;;
61915;SDS011;47868;51.326;6.550;2023-05-16T09:23:47;7.57;;;2.45;;
61915;SDS011;47868;51.326;6.550;2023-05-16T09:26:13;5.43;;;2.17;;
61915;SDS011;47868;51.326;6.550;2023-05-16T09:28:40;6.35;;;1.95;;
61915;SDS011;47868;51.326;6.550;2023-05-16T09:31:18;9.10;;;2.33;;
61915;SDS011;47868;51.326;6.550;2023-05-16T09:33:45;6.53;;;2.13;;
61915;SDS011;47868;51.326;6.550;2023-05-16T09:36:13;5.72;;;2.20;;
61915;SDS011;47868;51.326;6.550;2023-05-16T09:38:40;7.38;;;2.45;;
61915;SDS011;47868;51.326;6.550;2023-05-16T09:41:07;8.10;;;2.50;;
61915;SDS011;47868;51.326;6.550;2023-05-16T09:43:36;6.43;;;2.20;;
61915;SDS011;47868;51.326;6.550;2023-05-16T09:46:02;7.07;;;2.25;;
61915;SDS011;47868;51.326;6.550;2023-05-16T09:48:28;9.60;;;2.53;;
61915;SDS011;47868;51.326;6.550;2023-05-16T09:50:55;4.93;;;2.05;;
61915;SDS011;47868;51.326;6.550;2023-05-16T09:53:25;5.63;;;2.10;;
61915;SDS011;47868;51.326;6.550;2023-05-16T09:56:04;8.07;;;2.65;;
61915;SDS011;47868;51.326;6.550;2023-05-16T09:58:32;9.18;;;2.08;;
61915;SDS011;47868;51.326;6.550;2023-05-16T10:00:58;9.80;;;2.58;;
61915;SDS011;47868;51.326;6.550;2023-05-16T10:03:25;6.28;;;2.40;;
61915;SDS011;47868;51.326;6.550;2023-05-16T10:05:51;5.57;;;1.92;;
61915;SDS011;47868;51.326;6.550;2023-05-16T10:08:21;8.38;;;2.30;;
61915;SDS011;47868;51.326;6.550;2023-05-16T10:10:49;3.95;;;2.05;;
61915;SDS011;47868;51.326;6.550;2023-05-16T10:13:17;3.95;;;1.92;;
61915;SDS011;47868;51.326;6.550;2023-05-16T10:15:44;5.22;;;2.00;;
61915;SDS011;47868;51.326;6.550;2023-05-16T10:18:10;6.40;;;1.90;;
61915;SDS011;47868;51.326;6.550;2023-05-16T10:20:41;8.73;;;2.17;;
61915;SDS011;47868;51.326;6.550;2023-05-16T10:23:08;7.55;;;2.00;;
61915;SDS011;47868;51.326;6.550;2023-05-16T10:25:35;5.95;;;1.90;;
61915;SDS011;47868;51.326;6.550;2023-05-16T10:28:04;8.98;;;2.50;;
61915;SDS011;47868;51.326;6.550;2023-05-16T10:30:32;6.50;;;2.10;;
61915;SDS011;47868;51.326;6.550;2023-05-16T10:32:58;5.38;;;1.95;;
61915;SDS011;47868;51.326;6.550;2023-05-16T10:35:25;7.20;;;2.28;;
61915;SDS011;47868;51.326;6.550;2023-05-16T10:37:51;4.80;;;1.90;;
61915;SDS011;47868;51.326;6.550;2023-05-16T10:40:18;6.20;;;2.10;;
61915;SDS011;47868;51.326;6.550;2023-05-16T10:42:54;6.78;;;1.80;;
61915;SDS011;47868;51.326;6.550;2023-05-16T10:45:20;3.83;;;1.50;;
61915;SDS011;47868;51.326;6.550;2023-05-16T10:48:00;3.70;;;1.67;;
61915;SDS011;47868;51.326;6.550;2023-05-16T10:50:41;2.65;;;1.70;;
61915;SDS011;47868;51.326;6.550;2023-05-16T10:55:49;4.95;;;1.38;;
61915;SDS011;47868;51.326;6.550;2023-05-16T10:58:22;2.75;;;1.35;;
61915;SDS011;47868;51.326;6.550;2023-05-16T11:00:48;4.00;;;1.52;;
61915;SDS011;47868;51.326;6.550;2023-05-16T11:03:21;5.55;;;1.65;;
61915;SDS011;47868;51.326;6.550;2023-05-16T11:05:50;7.60;;;2.00;;
61915;SDS011;47868;51.326;6.550;2023-05-16T11:08:18;4.70;;;1.60;;
61915;SDS011;47868;51.326;6.550;2023-05-16T11:10:44;4.78;;;1.60;;
61915;SDS011;47868;51.326;6.550;2023-05-16T11:13:10;5.00;;;1.48;;
61915;SDS011;47868;51.326;6.550;2023-05-16T11:15:36;5.25;;;1.60;;
61915;SDS011;47868;51.326;6.550;2023-05-16T11:18:04;5.75;;;1.95;;
61915;SDS011;47868;51.326;6.550;2023-05-16T11:20:31;9.38;;;1.90;;
61915;SDS011;47868;51.326;6.550;2023-05-16T11:25:55;3.47;;;1.67;;
61915;SDS011;47868;51.326;6.550;2023-05-16T11:28:23;9.30;;;1.88;;
61915;SDS011;47868;51.326;6.550;2023-05-16T11:30:50;4.07;;;1.90;;
61915;SDS011;47868;51.326;6.550;2023-05-16T11:33:17;2.17;;;1.33;;
61915;SDS011;47868;51.326;6.550;2023-05-16T11:35:43;4.75;;;1.40;;
61915;SDS011;47868;51.326;6.550;2023-05-16T11:38:13;6.03;;;1.42;;
61915;SDS011;47868;51.326;6.550;2023-05-16T11:40:42;4.90;;;2.28;;
61915;SDS011;47868;51.326;6.550;2023-05-16T11:43:09;7.10;;;6.00;;
61915;SDS011;47868;51.326;6.550;2023-05-16T11:45:35;8.93;;;3.17;;
61915;SDS011;47868;51.326;6.550;2023-05-16T11:48:02;7.75;;;2.83;;
61915;SDS011;47868;51.326;6.550;2023-05-16T11:50:28;8.27;;;3.20;;
61915;SDS011;47868;51.326;6.550;2023-05-16T11:52:58;3.42;;;1.73;;
61915;SDS011;47868;51.326;6.550;2023-05-16T11:55:28;4.38;;;1.85;;
61915;SDS011;47868;51.326;6.550;2023-05-16T11:57:54;5.60;;;2.00;;
61915;SDS011;47868;51.326;6.550;2023-05-16T12:00:22;5.38;;;1.50;;
61915;SDS011;47868;51.326;6.550;2023-05-16T12:02:50;4.60;;;1.42;;
61915;SDS011;47868;51.326;6.550;2023-05-16T12:05:16;2.85;;;1.30;;
61915;SDS011;47868;51.326;6.550;2023-05-16T12:07:44;4.25;;;1.48;;
61915;SDS011;47868;51.326;6.550;2023-05-16T12:10:11;4.45;;;1.27;;
61915;SDS011;47868;51.326;6.550;2023-05-16T12:12:39;3.63;;;1.02;;
61915;SDS011;47868;51.326;6.550;2023-05-16T12:15:06;3.75;;;1.20;;
61915;SDS011;47868;51.326;6.550;2023-05-16T12:17:33;3.60;;;1.10;;
61915;SDS011;47868;51.326;6.550;2023-05-16T12:19:59;3.28;;;1.00;;
61915;SDS011;47868;51.326;6.550;2023-05-16T12:22:26;3.42;;;1.23;;
61915;SDS011;47868;51.326;6.550;2023-05-16T12:24:52;6.05;;;1.08;;
61915;SDS011;47868;51.326;6.550;2023-05-16T12:27:21;3.65;;;1.42;;
61915;SDS011;47868;51.326;6.550;2023-05-16T12:29:47;3.72;;;1.50;;
61915;SDS011;47868;51.326;6.550;2023-05-16T12:32:17;3.08;;;1.40;;
61915;SDS011;47868;51.326;6.550;2023-05-16T12:34:50;6.20;;;2.05;;
61915;SDS011;47868;51.326;6.550;2023-05-16T12:37:16;4.78;;;1.60;;
61915;SDS011;47868;51.326;6.550;2023-05-16T12:39:42;7.45;;;3.20;;
61915;SDS011;47868;51.326;6.550;2023-05-16T12:42:11;13.02;;;6.57;;
61915;SDS011;47868;51.326;6.550;2023-05-16T12:44:38;8.77;;;4.18;;
61915;SDS011;47868;51.326;6.550;2023-05-16T12:47:10;9.18;;;3.70;;
61915;SDS011;47868;51.326;6.550;2023-05-16T12:49:43;6.47;;;3.00;;
61915;SDS011;47868;51.326;6.550;2023-05-16T12:52:10;5.53;;;1.80;;
61915;SDS011;47868;51.326;6.550;2023-05-16T12:54:42;3.30;;;1.58;;
61915;SDS011;47868;51.326;6.550;2023-05-16T12:57:09;3.55;;;0.82;;
61915;SDS011;47868;51.326;6.550;2023-05-16T12:59:35;6.10;;;2.67;;
61915;SDS011;47868;51.326;6.550;2023-05-16T13:02:01;2.67;;;1.40;;
61915;SDS011;47868;51.326;6.550;2023-05-16T13:04:27;5.50;;;1.90;;
61915;SDS011;47868;51.326;6.550;2023-05-16T13:06:53;4.18;;;1.83;;
61915;SDS011;47868;51.326;6.550;2023-05-16T13:09:19;4.45;;;1.95;;
61915;SDS011;47868;51.326;6.550;2023-05-16T13:11:46;3.63;;;1.33;;
61915;SDS011;47868;51.326;6.550;2023-05-16T13:14:12;2.47;;;1.30;;
61915;SDS011;47868;51.326;6.550;2023-05-16T13:16:38;4.05;;;1.35;;
61915;SDS011;47868;51.326;6.550;2023-05-16T13:19:04;5.10;;;1.42;;
61915;SDS011;47868;51.326;6.550;2023-05-16T13:21:30;5.03;;;1.63;;
61915;SDS011;47868;51.326;6.550;2023-05-16T13:23:56;3.38;;;1.60;;
61915;SDS011;47868;51.326;6.550;2023-05-16T13:26:23;4.00;;;1.30;;
61915;SDS011;47868;51.326;6.550;2023-05-16T13:28:49;4.97;;;1.50;;
61915;SDS011;47868;51.326;6.550;2023-05-16T13:31:17;3.08;;;1.40;;
61915;SDS011;47868;51.326;6.550;2023-05-16T13:33:43;2.47;;;1.45;;
61915;SDS011;47868;51.326;6.550;2023-05-16T13:36:09;5.47;;;2.38;;
61915;SDS011;47868;51.326;6.550;2023-05-16T13:38:35;3.67;;;1.98;;
61915;SDS011;47868;51.326;6.550;2023-05-16T13:41:01;3.63;;;1.83;;
61915;SDS011;47868;51.326;6.550;2023-05-16T13:43:27;9.38;;;4.95;;
61915;SDS011;47868;51.326;6.550;2023-05-16T13:45:53;6.97;;;3.72;;
61915;SDS011;47868;51.326;6.550;2023-05-16T13:48:19;4.35;;;2.35;;
61915;SDS011;47868;51.326;6.550;2023-05-16T13:50:45;8.35;;;3.13;;
61915;SDS011;47868;51.326;6.550;2023-05-16T13:53:11;5.65;;;2.08;;
61915;SDS011;47868;51.326;6.550;2023-05-16T13:55:37;6.10;;;2.30;;
61915;SDS011;47868;51.326;6.550;2023-05-16T13:58:03;4.45;;;1.70;;
61915;SDS011;47868;51.326;6.550;2023-05-16T14:00:30;3.40;;;1.73;;
61915;SDS011;47868;51.326;6.550;2023-05-16T14:02:56;4.90;;;2.13;;
61915;SDS011;47868;51.326;6.550;2023-05-16T14:05:22;5.53;;;1.50;;
61915;SDS011;47868;51.326;6.550;2023-05-16T14:07:48;4.97;;;1.80;;
61915;SDS011;47868;51.326;6.550;2023-05-16T14:10:14;4.53;;;1.85;;
61915;SDS011;47868;51.326;6.550;2023-05-16T14:12:40;3.70;;;1.88;;
61915;SDS011;47868;51.326;6.550;2023-05-16T14:15:06;6.97;;;1.63;;
61915;SDS011;47868;51.326;6.550;2023-05-16T14:17:32;2.65;;;1.60;;
61915;SDS011;47868;51.326;6.550;2023-05-16T14:19:58;2.70;;;1.75;;
61915;SDS011;47868;51.326;6.550;2023-05-16T14:22:24;4.82;;;2.30;;
61915;SDS011;47868;51.326;6.550;2023-05-16T14:24:52;5.35;;;1.70;;
61915;SDS011;47868;51.326;6.550;2023-05-16T14:27:18;4.55;;;2.10;;
61915;SDS011;47868;51.326;6.550;2023-05-16T14:29:44;3.80;;;2.03;;
61915;SDS011;47868;51.326;6.550;2023-05-16T14:32:12;3.78;;;2.10;;
61915;SDS011;47868;51.326;6.550;2023-05-16T14:34:39;3.30;;;1.63;;
61915;SDS011;47868;51.326;6.550;2023-05-16T14:37:05;6.65;;;1.98;;
61915;SDS011;47868;51.326;6.550;2023-05-16T14:39:31;3.72;;;1.92;;
61915;SDS011;47868;51.326;6.550;2023-05-16T14:41:57;3.25;;;2.30;;
61915;SDS011;47868;51.326;6.550;2023-05-16T14:44:23;5.60;;;2.13;;
61915;SDS011;47868;51.326;6.550;2023-05-16T14:46:49;5.13;;;2.42;;
61915;SDS011;47868;51.326;6.550;2023-05-16T14:49:15;3.70;;;2.25;;
61915;SDS011;47868;51.326;6.550;2023-05-16T14:51:41;9.68;;;2.35;;